DIAP/ABJ METAR and TAF weather

Enter ICAO airport designator
Station Type Date Time Source
DIAP METAR 2023/05/31 21:30 UTC NOAA

DIAP 312130Z 21006KT 9999 SCT012 BKN026 28/26 Q1012 NOSIG


Station Type Date Time Source
DIAP Decoded METAR 2023/05/31 21:30 UTC NOAA

Abidjan, Cote d'Ivoire (DIAP) 05-15N 003-56W 8M
May 31, 2023 - 05:30 PM EDT / 2023.05.31 2130 UTC
Wind: from the SSW (210 degrees) at 7 MPH (6 KT):0
Visibility: greater than 7 mile(s):0
Sky conditions: mostly cloudy
Temperature: 82 F (28 C)
Dew Point: 78 F (26 C)
Relative Humidity: 88%
Pressure (altimeter): 29.88 in. Hg (1012 hPa)
ob: DIAP 312130Z 21006KT 9999 SCT012 BKN026 28/26 Q1012 NOSIG
cycle: 21

Station Type Date Time Source
DIAP TAF 2023/05/31 18:30 UTC NOAA

TAF DIAP 311726Z 3118/0124 18006KT 9999 SCT012 PROB30
TEMPO 3118/3120 BKN012 FEW020CB PROB30
TEMPO 0106/0110 4000 RA BKN012 PROB30
TEMPO 0116/0122 TS BKN012 FEW020CB

Example: see airport list